Time;durP1;ratioP1;P1;durP2;ratioP2;P2;SDS_P1;SDS_P2;PMS_P1;PMS_P2;Temp;Humidity;BMP_temperature;BMP_pressure;BME280_temperature;BME280_humidity;BME280_pressure;Samples;Min_cycle;Max_cycle;Signal;HPM_P1;HPM_P2
2021/12/03 00:01:15;;;;;;;11.18;8.30;;;4.60;77.70;;;3.72;64.27;93702.88;5072584;28;20298;-79
2021/12/03 00:03:43;;;;;;;11.15;8.43;;;4.60;77.80;;;3.70;64.55;93710.06;5049679;28;20192;-79
2021/12/03 00:06:11;;;;;;;10.93;8.40;;;4.60;77.60;;;3.72;64.50;93725.41;5032740;28;20226;-79
2021/12/03 00:08:38;;;;;;;11.52;8.00;;;4.60;77.60;;;3.71;64.49;93731.59;5029176;28;20199;-79
2021/12/03 00:11:09;;;;;;;10.98;7.93;;;4.70;77.70;;;3.71;64.49;93732.41;5049060;28;20294;-79
2021/12/03 00:13:36;;;;;;;11.20;7.28;;;4.60;77.70;;;3.72;64.36;93736.59;5049902;28;20176;-79
2021/12/03 00:16:04;;;;;;;9.05;7.05;;;4.70;77.80;;;3.74;64.75;93745.00;5061630;28;20200;-81
2021/12/03 00:18:33;;;;;;;9.15;6.43;;;4.60;77.70;;;3.73;64.47;93745.97;5070682;28;20649;-79
2021/12/03 00:21:06;;;;;;;7.82;5.88;;;4.60;77.70;;;3.71;64.40;93750.56;5053688;28;20239;-79
2021/12/03 00:23:34;;;;;;;6.72;5.30;;;4.60;77.70;;;3.63;64.15;93748.84;5053920;28;20191;-78
2021/12/03 00:26:04;;;;;;;8.90;5.50;;;4.60;77.70;;;3.66;64.26;93769.25;5079027;28;20265;-79
2021/12/03 00:28:32;;;;;;;7.15;5.32;;;4.60;77.60;;;3.61;64.18;93770.75;5070325;28;20206;-79
2021/12/03 00:31:00;;;;;;;8.95;5.40;;;4.60;77.50;;;3.61;64.19;93779.31;5073057;28;20196;-79
2021/12/03 00:33:30;;;;;;;7.68;5.53;;;4.60;77.60;;;3.58;64.32;93784.88;5035825;28;20196;-79
2021/12/03 00:36:03;;;;;;;9.32;6.13;;;4.60;77.50;;;3.55;64.18;93784.41;5053828;28;20231;-80
2021/12/03 00:38:39;;;;;;;9.25;6.28;;;4.60;77.50;;;3.46;64.24;93787.06;5061144;28;20241;-80
2021/12/03 00:41:14;;;;;;;10.90;6.35;;;4.50;77.40;;;3.43;64.26;93797.00;5049902;28;20635;-80
2021/12/03 00:43:47;;;;;;;10.20;6.85;;;4.40;77.40;;;3.33;64.71;93798.06;5081147;28;20198;-79
2021/12/03 00:46:17;;;;;;;11.35;7.22;;;4.40;77.40;;;3.34;64.45;93811.81;5078254;28;20608;-79
2021/12/03 00:48:53;;;;;;;10.27;7.07;;;4.40;77.40;;;3.30;64.68;93821.72;5052200;28;20215;-78
2021/12/03 00:51:24;;;;;;;11.18;7.22;;;4.30;77.50;;;3.29;64.66;93833.06;5052078;28;20652;-79
2021/12/03 00:53:52;;;;;;;11.43;7.78;;;4.30;77.40;;;3.26;64.80;93843.78;5063288;28;20211;-79
2021/12/03 00:56:20;;;;;;;14.00;7.05;;;4.30;77.50;;;3.20;64.47;93844.47;5068402;28;20208;-80
2021/12/03 00:58:47;;;;;;;8.50;6.03;;;4.30;77.50;;;3.17;64.24;93852.59;5032530;28;20276;-79
2021/12/03 01:01:16;;;;;;;9.23;6.25;;;4.20;77.30;;;3.10;64.34;93849.88;5034894;28;20221;-80
2021/12/03 01:03:44;;;;;;;11.13;7.25;;;4.10;77.30;;;3.08;64.23;93861.41;5068283;28;20234;-79
2021/12/03 01:06:13;;;;;;;11.93;7.20;;;4.10;77.30;;;3.04;64.44;93860.94;5070113;28;20234;-82
2021/12/03 01:08:40;;;;;;;11.23;7.18;;;4.10;77.30;;;3.03;64.40;93854.13;5051756;28;20734;-82
2021/12/03 01:11:10;;;;;;;11.98;7.47;;;4.00;77.30;;;2.99;64.68;93860.63;5050281;28;20196;-82
2021/12/03 01:13:41;;;;;;;12.30;7.53;;;4.00;77.40;;;2.93;64.40;93863.91;5048723;28;20246;-83
2021/12/03 01:16:10;;;;;;;13.55;7.60;;;4.00;77.40;;;2.88;64.49;93869.59;5071551;28;20629;-82
2021/12/03 01:18:40;;;;;;;13.55;8.60;;;3.90;77.40;;;2.83;64.92;93861.53;5057729;28;20196;-82
2021/12/03 01:21:09;;;;;;;14.20;8.30;;;3.90;77.40;;;2.78;64.63;93862.03;5068365;28;20251;-82
2021/12/03 01:23:36;;;;;;;13.23;8.75;;;3.90;77.40;;;2.76;64.63;93869.19;5055506;28;20206;-82
2021/12/03 01:26:04;;;;;;;14.73;8.60;;;3.80;77.40;;;2.74;64.78;93871.13;5072581;28;20195;-84
2021/12/03 01:28:31;;;;;;;13.63;8.63;;;3.80;77.50;;;2.66;64.74;93868.56;5056063;28;20188;-82
2021/12/03 01:31:01;;;;;;;12.93;8.25;;;3.80;77.50;;;2.72;64.76;93875.66;5073401;28;20655;-83
2021/12/03 01:33:29;;;;;;;14.27;8.60;;;3.70;77.50;;;2.66;64.71;93881.50;5056195;28;20195;-83
2021/12/03 01:35:56;;;;;;;13.52;8.48;;;3.70;77.60;;;2.71;64.86;93892.16;5039224;28;20199;-83
2021/12/03 01:38:23;;;;;;;11.82;8.25;;;3.70;77.60;;;2.65;64.73;93892.84;5056726;28;20495;-83
2021/12/03 01:40:52;;;;;;;13.23;8.55;;;3.70;77.70;;;2.68;64.93;93893.31;5041474;28;20253;-83
2021/12/03 01:43:24;;;;;;;10.50;6.85;;;3.70;77.70;;;2.71;64.82;93895.56;5074259;28;20199;-82
2021/12/03 01:46:00;;;;;;;11.10;7.35;;;3.70;77.70;;;2.70;64.69;93895.75;5057445;28;20196;-82
2021/12/03 01:48:28;;;;;;;10.18;7.22;;;3.70;77.80;;;2.68;64.95;93890.72;5057879;28;20176;-83
2021/12/03 01:50:56;;;;;;;12.95;7.43;;;3.70;77.80;;;2.74;65.31;93909.16;5057989;28;20195;-83
2021/12/03 01:53:28;;;;;;;12.63;7.20;;;3.70;77.90;;;2.69;64.88;93891.53;5073935;28;20191;-83
2021/12/03 01:56:01;;;;;;;11.38;7.07;;;3.70;77.90;;;2.73;64.81;93910.94;5038029;28;20196;-82
2021/12/03 01:58:28;;;;;;;9.48;6.65;;;3.70;77.90;;;2.75;65.05;93911.56;5057451;28;20189;-83
2021/12/03 02:01:01;;;;;;;9.15;6.65;;;3.70;78.70;;;2.78;65.16;93924.16;5056707;28;20199;-82
2021/12/03 02:03:32;;;;;;;8.52;6.88;;;3.80;77.90;;;2.70;65.16;93912.06;5054038;28;20184;-82
2021/12/03 02:06:01;;;;;;;12.77;6.72;;;3.70;77.80;;;2.72;64.89;93917.06;5037841;28;20200;-83
2021/12/03 02:08:28;;;;;;;10.55;6.03;;;3.70;77.80;;;2.71;64.87;93923.22;5062882;28;20195;-82
2021/12/03 02:10:57;;;;;;;9.13;6.03;;;3.70;77.80;;;2.67;64.94;93917.59;5090782;28;20187;-83
2021/12/03 02:13:24;;;;;;;8.23;5.78;;;3.70;77.80;;;2.64;64.88;93924.91;5056371;28;20219;-84
2021/12/03 02:15:51;;;;;;;7.55;5.68;;;3.70;77.80;;;2.64;65.15;93932.66;5057248;28;20571;-82
2021/12/03 02:18:19;;;;;;;7.90;5.65;;;3.70;77.80;;;2.54;65.10;93922.50;5057266;28;20772;-83
2021/12/03 02:20:57;;;;;;;7.47;5.72;;;3.70;77.80;;;2.61;65.08;93941.53;5040678;28;20261;-83
2021/12/03 02:23:26;;;;;;;10.00;5.80;;;3.70;78.00;;;2.58;65.50;93949.66;5069839;28;20262;-83
2021/12/03 02:25:53;;;;;;;7.95;5.53;;;3.60;77.80;;;2.60;64.78;93946.91;5037085;28;20208;-83
2021/12/03 02:28:24;;;;;;;7.57;5.20;;;3.60;77.80;;;2.60;65.08;93959.84;5064524;28;20249;-83
2021/12/03 02:30:52;;;;;;;6.93;5.28;;;3.60;78.70;;;2.61;65.04;93957.09;5073487;28;20680;-83
2021/12/03 02:33:20;;;;;;;8.45;5.43;;;3.60;77.90;;;2.61;65.03;93964.84;5021049;28;20680;-82
2021/12/03 02:35:48;;;;;;;7.28;5.07;;;3.60;77.90;;;2.54;65.11;93956.94;5047464;28;20223;-82
2021/12/03 02:38:20;;;;;;;6.97;5.40;;;3.60;77.80;;;2.62;65.03;93968.25;5056212;28;20200;-83
2021/12/03 02:40:49;;;;;;;7.40;5.60;;;3.60;77.90;;;2.59;65.11;93968.56;5040677;28;20269;-83
2021/12/03 02:43:17;;;;;;;9.00;5.80;;;3.60;77.90;;;2.53;65.13;93977.84;5072424;28;20242;-83
2021/12/03 02:45:46;;;;;;;8.00;5.50;;;3.60;77.90;;;2.53;65.35;93983.81;5056847;28;20215;-83
2021/12/03 02:48:13;;;;;;;7.60;5.55;;;3.50;77.90;;;2.55;65.13;93988.81;5056801;28;20230;-83
2021/12/03 02:50:40;;;;;;;7.57;5.47;;;3.50;77.90;;;2.54;65.38;93989.81;5039745;28;20255;-82
2021/12/03 02:53:08;;;;;;;7.50;5.47;;;3.50;77.90;;;2.51;65.19;93985.75;5056579;28;20289;-82
2021/12/03 02:55:35;;;;;;;7.28;5.15;;;3.50;77.90;;;2.53;64.91;93988.19;5040200;28;20223;-83
2021/12/03 02:58:03;;;;;;;7.47;4.75;;;3.50;77.90;;;2.52;64.88;93986.56;5056246;28;20640;-83
2021/12/03 03:00:33;;;;;;;6.50;4.90;;;3.50;77.80;;;2.49;64.53;93992.88;5040085;28;20270;-83
2021/12/03 03:03:01;;;;;;;7.97;5.03;;;3.50;77.70;;;2.45;64.45;93993.38;5056442;28;20273;-83
2021/12/03 03:05:28;;;;;;;7.93;5.10;;;3.50;77.50;;;2.40;64.60;94004.22;5073063;28;20209;-83
2021/12/03 03:07:56;;;;;;;6.20;4.80;;;3.40;77.50;;;2.36;64.72;93997.75;5056857;28;20227;-83
2021/12/03 03:10:31;;;;;;;6.63;5.30;;;3.40;77.40;;;2.22;64.15;93992.28;5056652;28;20234;-83
2021/12/03 03:13:00;;;;;;;5.95;4.75;;;3.40;77.40;;;2.20;64.28;94003.75;5052457;28;20203;-83
2021/12/03 03:15:29;;;;;;;7.07;5.28;;;3.40;77.30;;;2.13;64.21;94013.13;5036650;28;20223;-83
2021/12/03 03:17:57;;;;;;;7.35;5.75;;;3.30;77.20;;;2.05;64.67;94017.34;5036710;28;20294;-84
2021/12/03 03:20:24;;;;;;;7.60;5.35;;;3.30;77.10;;;1.99;64.71;94027.50;5073443;28;20734;-83
2021/12/03 03:22:52;;;;;;;6.13;5.15;;;3.20;77.10;;;1.94;64.73;94029.78;5056040;28;20254;-84
2021/12/03 03:25:20;;;;;;;6.57;5.05;;;3.20;77.20;;;1.87;64.81;94024.44;5056175;28;20648;-82
2021/12/03 03:27:48;;;;;;;7.25;5.10;;;3.10;77.30;;;1.84;64.79;94027.34;5055547;28;20230;-83
2021/12/03 03:30:18;;;;;;;7.20;5.00;;;3.10;77.30;;;1.77;64.47;94024.59;5055718;28;20703;-83
2021/12/03 03:32:49;;;;;;;9.50;5.20;;;3.00;77.20;;;1.73;64.45;94026.69;5039031;28;20634;-83
2021/12/03 03:35:17;;;;;;;6.75;5.15;;;3.00;77.20;;;1.68;65.08;94030.72;5069132;28;20234;-83
2021/12/03 03:37:45;;;;;;;6.78;4.85;;;2.90;77.30;;;1.63;64.83;94027.81;5035670;28;20254;-82
2021/12/03 03:40:13;;;;;;;9.25;5.63;;;2.90;77.20;;;1.60;64.79;94040.06;5050639;28;20284;-83
2021/12/03 03:42:40;;;;;;;5.38;4.88;;;2.80;77.20;;;1.53;64.99;94040.88;5054863;28;20284;-83
2021/12/03 03:45:13;;;;;;;5.65;4.93;;;2.80;77.30;;;1.48;64.86;94025.00;5089038;28;20324;-83
2021/12/03 03:47:41;;;;;;;9.75;5.47;;;2.80;77.50;;;1.52;65.33;94049.56;5055956;28;20294;-82
2021/12/03 03:50:10;;;;;;;8.43;5.75;;;2.70;77.50;;;1.53;65.41;94040.88;5105609;28;20814;-83
2021/12/03 03:52:39;;;;;;;6.18;4.47;;;2.70;77.60;;;1.54;65.43;94032.94;5055483;28;20199;-83
2021/12/03 03:55:13;;;;;;;7.30;5.22;;;2.70;77.60;;;1.56;65.45;94046.53;5072551;28;20207;-83
2021/12/03 03:57:41;;;;;;;9.07;5.15;;;2.70;77.80;;;1.60;65.48;94050.41;5055336;28;20191;-83
2021/12/03 04:00:14;;;;;;;8.70;5.47;;;2.70;77.80;;;1.55;65.07;94042.31;5055826;28;20222;-83
2021/12/03 04:02:42;;;;;;;6.47;5.10;;;2.70;77.70;;;1.56;65.32;94045.69;5051375;28;20216;-82
2021/12/03 04:05:10;;;;;;;6.63;5.07;;;2.70;77.70;;;1.60;65.55;94059.94;5085694;28;20277;-84
2021/12/03 04:07:38;;;;;;;6.95;5.10;;;2.70;78.50;;;1.58;65.42;94044.56;5102392;28;20330;-83
2021/12/03 04:10:07;;;;;;;8.55;5.32;;;2.70;77.80;;;1.60;65.32;94042.66;5084951;28;20573;-83
2021/12/03 04:12:35;;;;;;;7.18;5.32;;;2.70;77.90;;;1.61;65.34;94051.19;5085954;28;20198;-83
2021/12/03 04:15:06;;;;;;;8.35;5.47;;;2.70;78.00;;;1.64;65.29;94056.06;5052169;28;20258;-83
2021/12/03 04:17:34;;;;;;;8.35;5.82;;;2.70;78.00;;;1.69;65.61;94061.56;5035604;28;20249;-83
2021/12/03 04:20:02;;;;;;;7.97;5.38;;;2.70;78.00;;;1.75;65.52;94071.28;5044123;28;20251;-83
2021/12/03 04:22:31;;;;;;;9.43;5.93;;;2.70;78.00;;;1.75;65.85;94073.84;5076426;28;20220;-84
2021/12/03 04:24:59;;;;;;;11.57;5.93;;;2.80;78.20;;;1.78;65.83;94077.09;5037320;28;20299;-83
2021/12/03 04:27:28;;;;;;;9.38;6.40;;;2.80;78.20;;;1.83;65.66;94086.00;5054952;28;20568;-83
2021/12/03 04:29:56;;;;;;;7.28;5.90;;;2.80;78.20;;;1.83;65.54;94082.59;5045315;28;20219;-83
2021/12/03 04:32:25;;;;;;;9.65;6.03;;;2.80;78.20;;;1.87;65.59;94089.09;5037503;28;20654;-84
2021/12/03 04:34:54;;;;;;;11.05;6.07;;;2.90;78.30;;;1.93;65.56;94093.63;5044004;28;20212;-83
2021/12/03 04:37:22;;;;;;;10.32;6.30;;;2.90;78.30;;;1.88;65.56;94088.09;5053780;28;20210;-83
2021/12/03 04:39:51;;;;;;;8.90;6.28;;;2.90;78.20;;;1.90;65.52;94096.50;5044289;28;20265;-84
2021/12/03 04:42:18;;;;;;;9.15;6.38;;;2.90;78.10;;;1.84;65.43;94090.19;5046451;28;20239;-84
2021/12/03 04:44:46;;;;;;;8.23;6.13;;;2.90;78.10;;;1.89;65.34;94110.41;5070140;28;20211;-83
2021/12/03 04:47:13;;;;;;;8.40;6.03;;;3.00;77.90;;;1.84;65.50;94123.00;5043301;28;21408;-83
2021/12/03 04:49:41;;;;;;;10.43;5.97;;;3.00;77.80;;;1.79;64.94;94114.91;5054448;28;20219;-83
2021/12/03 04:52:08;;;;;;;7.10;5.47;;;2.90;77.60;;;1.72;65.05;94119.88;5056743;28;20553;-83
2021/12/03 04:54:35;;;;;;;7.88;5.32;;;2.90;77.70;;;1.67;65.27;94135.06;5073250;28;20302;-83
2021/12/03 04:57:03;;;;;;;7.63;6.05;;;2.90;77.70;;;1.70;65.26;94135.56;5055989;28;20268;-83
2021/12/03 04:59:30;;;;;;;7.82;5.28;;;2.80;77.70;;;1.65;65.52;94130.06;5068738;28;20206;-84
2021/12/03 05:01:59;;;;;;;8.68;5.95;;;2.90;77.70;;;1.66;65.27;94141.19;5084986;28;20211;-83
2021/12/03 05:04:27;;;;;;;7.55;5.00;;;2.80;77.70;;;1.65;65.25;94148.16;5088120;28;20264;-84
2021/12/03 05:09:23;;;;;;;7.45;5.70;;;2.80;77.60;;;1.60;65.13;94146.03;5072920;28;20215;-84
2021/12/03 05:11:51;;;;;;;8.63;5.00;;;2.70;77.60;;;1.59;64.89;94153.94;5068899;28;20278;-85
2021/12/03 05:14:19;;;;;;;6.57;5.07;;;2.70;77.50;;;1.55;64.98;94152.63;5038949;28;20211;-84
2021/12/03 05:16:48;;;;;;;9.43;4.95;;;2.70;77.50;;;1.54;65.18;94162.16;5039139;28;20646;-84
2021/12/03 05:19:17;;;;;;;10.23;6.35;;;2.70;77.50;;;1.49;65.53;94167.00;5052925;28;20718;-84
2021/12/03 05:21:45;;;;;;;10.52;7.35;;;2.70;77.60;;;1.47;64.98;94162.94;5058554;28;20204;-83
2021/12/03 05:24:13;;;;;;;9.90;6.78;;;2.70;77.70;;;1.42;65.22;94161.63;5075126;28;20250;-85
2021/12/03 05:26:41;;;;;;;8.93;6.65;;;2.60;77.50;;;1.35;64.58;94162.41;5058938;28;20206;-84
2021/12/03 05:29:09;;;;;;;9.57;6.32;;;2.60;77.40;;;1.31;64.60;94176.56;5042698;28;20310;-83
2021/12/03 05:31:37;;;;;;;9.23;5.80;;;2.60;77.10;;;1.20;64.37;94188.78;5058664;28;20195;-84
2021/12/03 05:34:25;;;;;;;7.45;6.07;;;2.50;77.00;;;1.00;64.75;94175.28;5047826;28;20337;-85
2021/12/03 05:36:52;;;;;;;9.45;6.13;;;2.40;76.80;;;0.97;64.64;94188.47;5058193;28;20208;-84
2021/12/03 05:39:20;;;;;;;8.30;5.97;;;2.30;76.70;;;0.80;64.48;94177.22;5075059;28;20219;-84
2021/12/03 05:41:47;;;;;;;12.57;6.90;;;2.30;76.80;;;0.77;65.27;94187.84;5071016;28;20234;-83
2021/12/03 05:44:14;;;;;;;7.60;5.60;;;2.20;76.80;;;0.68;64.67;94194.69;5047419;28;20247;-84
2021/12/03 05:46:41;;;;;;;7.53;5.57;;;2.10;76.70;;;0.60;64.76;94197.22;5058609;28;20203;-85
2021/12/03 05:49:10;;;;;;;10.05;5.72;;;2.00;76.60;;;0.53;64.60;94196.19;5074936;28;20211;-84
2021/12/03 05:51:37;;;;;;;10.55;5.78;;;2.00;76.60;;;0.43;64.93;94209.97;5071203;28;20200;-84
2021/12/03 05:54:04;;;;;;;9.70;6.18;;;1.90;76.60;;;0.38;64.50;94216.53;5054678;28;20227;-85
2021/12/03 05:56:32;;;;;;;9.73;6.53;;;1.80;76.70;;;0.30;64.57;94212.09;5028716;28;20225;-85
2021/12/03 05:59:00;;;;;;;9.20;6.90;;;1.80;76.80;;;0.27;64.58;94217.53;5074453;28;20215;-85
2021/12/03 06:01:27;;;;;;;10.40;6.53;;;1.70;76.70;;;0.22;64.78;94220.56;5058061;28;20286;-85
2021/12/03 06:03:55;;;;;;;8.75;6.00;;;1.60;76.80;;;0.10;64.88;94212.22;5057639;28;20226;-85
2021/12/03 06:06:23;;;;;;;9.82;6.35;;;1.60;76.80;;;0.08;65.13;94218.50;5058166;28;20222;-85
2021/12/03 06:08:50;;;;;;;11.68;6.68;;;1.50;76.90;;;0.13;65.35;94229.19;5073822;28;20261;-85
2021/12/03 06:11:17;;;;;;;7.75;6.05;;;1.50;77.10;;;0.10;65.46;94232.06;5074529;28;20199;-84
2021/12/03 06:13:45;;;;;;;8.40;5.93;;;1.40;77.00;;;0.05;65.05;94223.91;5070677;28;20278;-84
2021/12/03 06:16:13;;;;;;;8.13;5.63;;;1.40;77.00;;;0.06;65.21;94234.09;5037824;28;20206;-85
2021/12/03 06:18:41;;;;;;;9.18;5.97;;;1.40;77.00;;;0.03;64.72;94236.16;5054972;28;20285;-84
2021/12/03 06:21:11;;;;;;;11.50;5.97;;;1.40;77.00;;;-0.07;64.91;94226.69;5058022;28;20226;-84
2021/12/03 06:23:39;;;;;;;8.88;5.45;;;1.30;77.10;;;-0.04;64.96;94252.22;5074337;28;20219;-84
2021/12/03 06:26:08;;;;;;;6.45;5.30;;;1.30;77.00;;;-0.05;65.45;94254.91;5072701;28;20195;-83
2021/12/03 06:28:39;;;;;;;8.18;5.30;;;1.30;77.10;;;-0.10;65.28;94251.94;5040970;28;20657;-83
2021/12/03 06:31:07;;;;;;;6.88;4.85;;;1.30;77.10;;;-0.09;65.00;94254.38;5041099;28;20227;-84
2021/12/03 06:33:34;;;;;;;8.38;5.05;;;1.20;77.10;;;-0.09;65.28;94258.72;5056975;28;20279;-83
2021/12/03 06:36:02;;;;;;;7.45;5.13;;;1.20;77.00;;;-0.13;65.31;94263.38;5040761;28;20204;-80
2021/12/03 06:38:31;;;;;;;8.00;5.13;;;1.20;77.10;;;-0.13;65.17;94268.50;5056311;28;20226;-80
2021/12/03 06:40:58;;;;;;;8.32;5.10;;;1.20;77.20;;;-0.14;65.14;94266.09;5056218;28;20211;-80
2021/12/03 06:43:26;;;;;;;10.82;7.43;;;1.10;77.10;;;-0.15;64.98;94267.03;5056154;28;20669;-81
2021/12/03 06:45:54;;;;;;;17.90;11.27;;;1.10;77.10;;;-0.18;64.94;94274.09;5040141;28;20213;-81
2021/12/03 06:48:21;;;;;;;18.35;10.60;;;1.10;77.10;;;-0.21;65.07;94283.88;5072425;28;20207;-81
2021/12/03 06:50:50;;;;;;;22.52;11.10;;;1.10;77.10;;;-0.20;65.56;94288.88;5056363;28;20767;-80
2021/12/03 06:53:22;;;;;;;16.38;9.25;;;1.10;77.20;;;-0.19;65.38;94292.28;5052614;28;20212;-81
2021/12/03 06:58:21;;;;;;;17.55;9.32;;;1.00;77.30;;;-0.19;65.22;94300.81;5059929;28;20206;-82
2021/12/03 07:00:53;;;;;;;11.10;7.07;;;1.10;77.40;;;-0.16;64.98;94315.19;5052412;28;20295;-81
2021/12/03 07:03:21;;;;;;;10.93;7.72;;;1.10;77.40;;;-0.20;65.26;94324.97;5034650;28;20314;-81
2021/12/03 07:05:49;;;;;;;23.05;12.80;;;1.10;77.40;;;-0.14;65.58;94333.91;5078317;28;20215;-80
2021/12/03 07:08:17;;;;;;;13.55;8.73;;;1.10;77.50;;;-0.09;65.50;94328.34;5068079;28;20203;-80
2021/12/03 07:10:45;;;;;;;11.82;7.32;;;1.10;77.60;;;-0.03;65.50;94330.34;5054604;28;20223;-81
2021/12/03 07:13:12;;;;;;;25.13;13.07;;;1.10;77.80;;;-0.02;65.62;94325.03;5068771;28;20226;-80
2021/12/03 07:15:39;;;;;;;17.63;10.15;;;1.10;77.90;;;0.13;65.89;94334.91;5036137;28;20222;-80
2021/12/03 07:18:08;;;;;;;13.85;8.13;;;1.20;78.20;;;0.26;65.78;94335.38;5052719;28;20289;-80
2021/12/03 07:20:36;;;;;;;13.57;7.88;;;1.20;78.40;;;0.38;65.92;94350.66;5048753;28;20243;-81
2021/12/03 07:23:03;;;;;;;13.57;8.10;;;1.30;78.50;;;0.53;65.68;94341.50;5034989;28;20432;-79
2021/12/03 07:25:30;;;;;;;11.90;7.43;;;1.40;78.50;;;0.62;66.36;94339.81;5052463;28;20247;-80
2021/12/03 07:27:58;;;;;;;11.75;7.40;;;1.50;78.60;;;0.80;66.17;94352.75;5052558;28;20187;-81
2021/12/03 07:30:30;;;;;;;13.80;9.05;;;1.60;78.80;;;0.91;66.29;94355.13;5053505;28;20559;-80
2021/12/03 07:32:58;;;;;;;14.98;9.75;;;1.70;78.90;;;1.00;66.33;94347.47;5070139;28;20195;-81
2021/12/03 07:35:25;;;;;;;14.98;9.50;;;1.80;79.00;;;1.11;66.04;94353.22;5037528;28;20314;-80
2021/12/03 07:37:53;;;;;;;12.20;8.85;;;1.90;79.00;;;1.20;65.85;94366.22;5051247;28;20627;-81
2021/12/03 07:40:20;;;;;;;12.98;8.60;;;2.00;78.90;;;1.26;65.72;94371.59;5070901;28;20203;-81
2021/12/03 07:42:47;;;;;;;14.65;8.70;;;2.10;79.00;;;1.28;65.68;94367.09;5053209;28;20219;-81
2021/12/03 07:45:16;;;;;;;12.23;8.80;;;2.10;78.70;;;1.30;65.55;94368.72;5070711;28;20585;-80
2021/12/03 07:47:44;;;;;;;12.77;8.82;;;2.20;78.50;;;1.28;65.58;94374.84;5052049;28;20226;-79
2021/12/03 07:50:12;;;;;;;12.00;8.27;;;2.20;78.50;;;1.28;65.85;94381.78;5054010;28;20310;-81
2021/12/03 07:52:40;;;;;;;12.98;8.32;;;2.30;78.40;;;1.31;65.73;94381.50;5050219;28;20224;-80
2021/12/03 07:55:08;;;;;;;12.98;8.85;;;2.30;79.30;;;1.33;65.49;94381.34;5067279;28;20240;-80
2021/12/03 07:57:35;;;;;;;12.98;8.57;;;2.30;78.50;;;1.36;65.61;94383.63;5080439;28;20203;-79
2021/12/03 08:00:07;;;;;;;13.07;8.43;;;2.30;78.50;;;1.42;65.35;94390.78;5038229;28;20215;-81
2021/12/03 08:02:38;;;;;;;14.48;8.93;;;2.30;78.50;;;1.46;65.79;94391.31;5076495;28;20203;-80
2021/12/03 08:05:06;;;;;;;10.48;8.38;;;2.40;78.50;;;1.47;65.63;94390.34;5073178;28;20273;-81
2021/12/03 08:07:33;;;;;;;14.07;8.35;;;2.40;78.50;;;1.49;65.90;94394.41;5066051;28;20579;-80
2021/12/03 08:10:00;;;;;;;12.48;7.97;;;2.50;78.70;;;1.57;65.57;94393.66;5034071;28;20658;-79
2021/12/03 08:12:28;;;;;;;11.02;8.02;;;2.50;78.60;;;1.67;65.58;94409.06;5094653;28;20209;-80
2021/12/03 08:14:55;;;;;;;10.25;7.38;;;2.50;79.30;;;1.71;65.35;94407.81;5069413;28;20230;-79
2021/12/03 08:17:22;;;;;;;11.70;7.95;;;2.50;78.60;;;1.75;65.26;94414.31;5078733;28;20198;-80
2021/12/03 08:19:49;;;;;;;10.13;7.90;;;2.60;78.60;;;1.70;65.38;94412.19;5065307;28;20227;-82
2021/12/03 08:22:17;;;;;;;11.90;7.75;;;2.60;78.40;;;1.74;65.74;94410.91;5060544;28;20200;-82
2021/12/03 08:24:44;;;;;;;12.77;8.18;;;2.70;78.50;;;1.80;65.92;94411.28;5033567;28;20747;-82
2021/12/03 08:27:11;;;;;;;11.23;8.43;;;2.70;78.70;;;1.96;66.26;94426.13;5051454;28;20196;-83
2021/12/03 08:29:38;;;;;;;10.68;7.00;;;2.80;79.10;;;2.16;66.31;94424.13;5034797;28;20223;-83
2021/12/03 08:32:06;;;;;;;9.88;6.85;;;2.80;79.30;;;2.31;66.21;94438.16;5033366;28;20246;-82
2021/12/03 08:34:33;;;;;;;15.00;8.02;;;2.90;79.50;;;2.37;65.42;94434.94;5054145;28;20251;-82
2021/12/03 08:37:01;;;;;;;10.77;7.82;;;3.10;79.40;;;2.48;65.09;94438.22;5071295;28;20295;-83
2021/12/03 08:39:30;;;;;;;9.73;7.20;;;3.10;79.10;;;2.56;65.19;94439.09;5071105;28;20207;-82
2021/12/03 08:41:58;;;;;;;9.68;6.72;;;3.20;79.00;;;2.67;65.00;94450.13;5054871;28;20187;-82
2021/12/03 08:44:26;;;;;;;10.93;7.25;;;3.30;79.10;;;2.78;65.05;94436.13;5071619;28;20230;-82
2021/12/03 08:46:58;;;;;;;10.35;7.50;;;3.40;79.10;;;2.90;65.55;94444.44;5050872;28;20305;-82
2021/12/03 08:49:35;;;;;;;9.55;6.97;;;3.50;79.20;;;2.99;65.25;94446.91;5050996;28;20216;-81
2021/12/03 08:52:33;;;;;;;8.50;6.30;;;3.60;79.20;;;3.14;64.77;94451.47;5024770;28;20200;-82
2021/12/03 08:55:01;;;;;;;10.35;7.28;;;3.70;79.20;;;3.26;64.92;94463.16;5067649;28;20233;-82
2021/12/03 08:57:34;;;;;;;9.23;6.80;;;3.90;79.20;;;3.33;64.76;94453.81;5071151;28;20219;-82
2021/12/03 09:00:16;;;;;;;10.63;8.02;;;4.00;79.00;;;3.38;64.79;94453.31;5049717;28;20618;-82
2021/12/03 09:02:44;;;;;;;9.90;7.53;;;4.10;78.80;;;3.44;64.16;94460.47;5034533;28;20203;-82
2021/12/03 09:05:12;;;;;;;12.43;7.68;;;4.10;78.60;;;3.46;64.07;94455.91;5053035;28;20257;-82
2021/12/03 09:07:41;;;;;;;9.13;6.65;;;4.20;78.40;;;3.53;64.17;94456.09;5068195;28;20223;-81
2021/12/03 09:10:15;;;;;;;9.35;6.53;;;4.40;78.60;;;3.61;64.38;94463.88;5038533;28;20272;-81
2021/12/03 09:12:43;;;;;;;11.10;7.15;;;4.30;78.60;;;3.64;64.04;94463.56;5067627;28;20203;-81
2021/12/03 09:15:13;;;;;;;9.10;7.05;;;4.40;78.50;;;3.67;63.95;94459.84;5053662;28;20722;-81
2021/12/03 09:23:27;;;;;;;8.52;6.28;;;4.50;78.30;;;3.78;63.81;94475.09;5084849;28;20207;-81
2021/12/03 09:26:04;;;;;;;9.15;6.88;;;4.50;78.10;;;3.78;63.55;94479.47;5054480;28;20726;-80
2021/12/03 09:28:35;;;;;;;9.10;7.28;;;4.60;78.00;;;3.77;63.50;94477.84;5081307;28;20187;-82
2021/12/03 09:31:04;;;;;;;7.97;6.53;;;4.60;77.70;;;3.77;63.68;94478.69;5036427;28;20294;-83
2021/12/03 09:33:34;;;;;;;7.82;6.47;;;4.60;77.70;;;3.77;63.40;94475.25;5081407;28;20223;-81
2021/12/03 09:36:04;;;;;;;8.32;6.45;;;4.60;77.60;;;3.74;63.20;94475.59;5036271;28;20666;-81
2021/12/03 09:38:33;;;;;;;7.57;6.00;;;4.60;77.40;;;3.69;62.85;94466.50;5057922;28;20195;-82
2021/12/03 09:41:09;;;;;;;7.57;5.32;;;4.60;77.20;;;3.62;63.01;94455.13;5048280;28;20322;-82
2021/12/03 09:43:41;;;;;;;7.22;5.93;;;4.60;77.00;;;3.59;62.80;94462.41;5090214;28;20218;-81
2021/12/03 09:46:20;;;;;;;7.53;5.55;;;4.60;77.00;;;3.61;62.82;94452.69;5057504;28;20207;-82
2021/12/03 09:57:05;;;;;;;5.90;4.75;;;4.50;77.50;;;3.51;62.34;94443.28;5057202;28;20203;-80
2021/12/03 10:00:03;;;;;;;6.85;5.20;;;4.50;76.80;;;3.56;62.41;94449.78;5059574;28;20218;-81
2021/12/03 10:13:37;;;;;;;5.90;4.47;;;4.40;76.30;;;3.64;60.83;94442.03;5069164;28;20204;-79
2021/12/03 10:19:29;;;;;;;4.57;3.80;;;4.50;76.50;;;3.84;61.73;94443.34;5053695;28;20310;-80
2021/12/03 10:22:28;;;;;;;4.35;3.63;;;4.50;76.60;;;3.90;61.55;94441.06;5075464;28;20563;-80
2021/12/03 11:02:17;;;;;;;4.78;3.70;;;5.70;74.30;;;4.86;58.43;94443.81;5003198;28;20235;-79
2021/12/03 11:21:42;;;;;;;4.53;3.42;;;5.60;74.40;;;4.87;59.00;94442.81;5057296;28;20214;-79
2021/12/03 11:40:53;;;;;;;3.92;3.30;;;5.60;73.10;;;4.64;57.89;94449.56;5079472;28;20229;-79
2021/12/03 11:43:47;;;;;;;4.20;3.58;;;5.60;72.90;;;4.65;58.15;94443.38;5059681;28;20202;-78
2021/12/03 12:43:05;;;;;;;6.45;4.32;;;5.20;73.00;;;4.12;57.51;94470.72;5071141;28;20215;-80
2021/12/03 14:53:39;;;;;;;4.78;3.30;;;3.80;71.50;;;2.29;58.03;94509.94;5071108;28;20576;-82
2021/12/03 14:56:11;;;;;;;4.45;3.40;;;3.70;71.50;;;2.13;57.93;94509.81;5064842;28;20206;-82
2021/12/03 15:01:42;;;;;;;4.38;3.33;;;3.50;71.30;;;1.97;57.92;94513.88;5054125;28;20744;-80
2021/12/03 15:04:31;;;;;;;4.85;3.30;;;3.40;71.30;;;1.89;58.04;94514.66;5099653;27;20324;-79
2021/12/03 15:07:10;;;;;;;4.05;3.03;;;3.30;71.10;;;1.79;57.95;94505.34;5056798;28;20210;-80
2021/12/03 15:09:41;;;;;;;6.93;4.22;;;3.20;71.40;;;1.75;57.79;94509.97;5066175;28;20309;-80
2021/12/03 15:25:08;;;;;;;4.25;3.50;;;2.80;71.60;;;1.36;58.44;94502.50;5053749;28;20227;-82
2021/12/03 15:35:59;;;;;;;4.57;3.65;;;2.50;71.70;;;1.00;58.19;94523.06;5057066;28;20788;-81
2021/12/03 15:51:52;;;;;;;5.82;4.28;;;2.40;71.80;;;0.90;58.48;94523.91;5071704;28;20248;-81
2021/12/03 15:52:41;;;;;;;5.93;4.72;;;2.10;71.90;;;0.70;58.62;94532.69;5068852;28;20282;-81
2021/12/03 16:11:06;;;;;;;15.30;8.65;;;1.80;71.90;;;0.42;58.77;94546.31;5088403;28;20746;-80
2021/12/03 16:46:18;;;;;;;8.40;6.13;;;1.60;72.10;;;0.21;58.80;94551.66;5062962;28;20223;-81
2021/12/03 16:54:06;;;;;;;8.57;6.35;;;1.50;72.20;;;0.10;59.11;94541.47;5102641;28;20238;-80
2021/12/03 16:56:35;;;;;;;7.03;5.85;;;1.50;72.30;;;0.11;59.34;94543.09;5043796;28;20198;-81
2021/12/03 16:59:04;;;;;;;10.25;7.07;;;1.50;72.30;;;0.08;59.30;94540.78;5027787;28;20246;-79